PST,Max TemperatureF,Mean TemperatureF,Min TemperatureF,Max Dew PointF,MeanDew PointF,Min DewpointF,Max Humidity, Mean Humidity, Min Humidity, Max Sea Level PressureIn, Mean Sea Level PressureIn, Min Sea Level PressureIn, Max VisibilityMiles, Mean VisibilityMiles, Min VisibilityMiles, Max Wind SpeedMPH, Mean Wind SpeedMPH, Max Gust SpeedMPH,PrecipitationIn, CloudCover, Events, WindDirDegrees
2012-12-1,52,49,46,48,46,44,100,87,76,29.60,29.46,29.24,10,8,2,29,18,40,1.09,8,Rain,155
2012-12-2,51,48,46,47,45,41,100,88,74,29.80,29.47,29.20,10,9,2,24,11,39,0.70,7,Rain,206
2012-12-3,52,49,46,49,47,43,97,91,82,29.98,29.86,29.59,10,8,2,23,15,31,0.89,8,Rain,148
2012-12-4,54,50,46,52,46,38,97,88,71,29.91,29.69,29.47,10,7,2,33,18,44,0.62,8,Rain,196
2012-12-5,48,46,43,42,39,35,93,79,66,30.21,30.15,29.94,10,10,8,24,11,31,0.05,6,Rain,175
2012-12-6,48,46,43,45,43,41,93,88,82,30.19,30.13,30.08,10,8,2,23,9,30,0.40,7,Rain,220
2012-12-7,48,44,39,45,40,34,93,82,63,30.22,30.10,30.03,10,9,4,29,15,39,0.20,6,Rain,264
2012-12-8,45,41,37,40,38,36,100,92,76,30.35,30.26,30.19,10,10,6,8,2,,0.12,7,Rain,59
2012-12-9,48,44,39,48,43,37,100,97,87,30.36,30.30,30.25,10,3,1,12,7,,0.27,8,Rain,68
2012-12-10,50,44,39,46,43,37,100,94,80,30.45,30.36,30.12,10,7,2,9,2,,0.00,6,,267
2012-12-11,46,44,43,46,43,39,100,92,85,30.07,29.68,29.55,10,7,1,23,9,28,0.50,8,Rain,202
2012-12-12,46,40,35,43,39,34,97,89,76,30.04,29.82,29.66,10,9,3,16,6,,0.15,5,Rain,70
2012-12-13,44,38,33,41,38,33,100,94,85,30.05,29.92,29.78,10,7,0,13,7,,0.30,7,Fog-Rain,77
2012-12-14,46,40,35,43,39,35,100,92,74,29.95,29.85,29.75,10,9,4,20,7,24,0.03,4,Rain,82
2012-12-15,45,40,36,39,37,34,100,91,71,29.88,29.65,29.52,10,8,3,22,11,33,0.42,7,Rain,62
2012-12-16,48,42,37,46,39,35,100,92,71,29.75,29.32,28.88,10,7,2,26,12,34,1.36,8,Rain,86
2012-12-17,48,42,36,46,37,31,93,78,60,29.89,29.48,28.89,10,8,2,38,24,60,0.24,7,Rain,253
2012-12-18,37,35,33,36,34,32,100,92,86,29.99,29.94,29.86,10,9,2,20,7,25,0.43,7,Rain,104
2012-12-19,44,38,33,43,37,33,100,92,87,29.90,29.64,29.52,10,6,1,29,15,40,2.15,8,Rain-Snow,96
2012-12-20,43,38,33,40,37,32,100,92,85,29.78,29.61,29.49,10,8,2,16,6,24,0.74,7,Rain-Snow,82
2012-12-21,48,42,37,43,38,34,100,89,74,29.76,29.69,29.61,10,10,7,14,10,,0.16,6,Rain,63
2012-12-22,45,42,39,41,39,38,93,87,80,29.70,29.55,29.47,10,9,3,20,13,26,0.28,7,Rain,101
2012-12-23,43,41,37,40,39,37,100,93,81,29.86,29.70,29.63,10,9,4,15,9,,0.40,7,Rain,74
2012-12-24,46,42,37,43,39,37,100,90,73,30.16,30.04,29.88,10,8,2,14,4,,0.23,7,Rain,118
2012-12-25,41,37,33,39,36,33,100,94,89,29.99,29.67,29.59,10,6,2,23,16,33,0.69,8,Rain-Snow,58
2012-12-26,46,42,39,43,41,39,100,91,81,29.96,29.78,29.67,10,8,2,21,9,26,0.50,8,Rain,247
2012-12-27,46,44,41,43,41,39,96,90,83,30.15,30.09,29.96,10,9,5,10,5,,0.11,7,Rain,84
2012-12-28,44,42,41,43,41,39,100,95,89,30.16,30.11,30.09,10,8,5,9,8,,0.24,8,Rain,57
2012-12-29,44,42,39,43,40,38,100,94,87,30.23,30.17,30.13,10,8,2,7,4,,0.01,8,Rain,57
2012-12-30,45,40,35,39,37,33,100,90,71,30.31,30.27,30.22,10,10,6,14,7,,0.00,4,,68
2012-12-31,37,34,32,36,34,30,100,95,86,30.44,30.32,30.24,10,8,2,13,8,17,0.16,7,Rain,60